sensor_id;sensor_type;location;lat;lon;timestamp;temperature;humidity
1107;DHT22;540;49.448;8.612;2022-07-23T00:01:55;26.40;62.00
1107;DHT22;540;49.448;8.612;2022-07-23T00:04:24;26.40;61.30
1107;DHT22;540;49.448;8.612;2022-07-23T00:06:52;26.40;60.70
1107;DHT22;540;49.448;8.612;2022-07-23T00:09:20;26.30;60.60
1107;DHT22;540;49.448;8.612;2022-07-23T00:11:48;26.30;60.70
1107;DHT22;540;49.448;8.612;2022-07-23T00:14:15;26.30;60.40
1107;DHT22;540;49.448;8.612;2022-07-23T00:16:43;26.30;60.20
1107;DHT22;540;49.448;8.612;2022-07-23T00:19:11;26.30;60.20
1107;DHT22;540;49.448;8.612;2022-07-23T00:21:41;26.20;59.60
1107;DHT22;540;49.448;8.612;2022-07-23T00:24:08;26.20;59.40
1107;DHT22;540;49.448;8.612;2022-07-23T00:26:36;26.10;59.30
1107;DHT22;540;49.448;8.612;2022-07-23T00:29:04;26.00;59.50
1107;DHT22;540;49.448;8.612;2022-07-23T00:31:32;25.80;59.50
1107;DHT22;540;49.448;8.612;2022-07-23T00:34:00;26.10;59.60
1107;DHT22;540;49.448;8.612;2022-07-23T00:36:28;26.00;59.70
1107;DHT22;540;49.448;8.612;2022-07-23T00:38:59;26.00;59.70
1107;DHT22;540;49.448;8.612;2022-07-23T00:41:27;25.90;59.70
1107;DHT22;540;49.448;8.612;2022-07-23T00:43:55;25.90;59.90
1107;DHT22;540;49.448;8.612;2022-07-23T00:46:23;25.90;59.90
1107;DHT22;540;49.448;8.612;2022-07-23T00:48:51;25.80;59.80
1107;DHT22;540;49.448;8.612;2022-07-23T00:51:19;25.80;59.80
1107;DHT22;540;49.448;8.612;2022-07-23T00:53:47;25.70;60.00
1107;DHT22;540;49.448;8.612;2022-07-23T00:56:17;25.70;60.40
1107;DHT22;540;49.448;8.612;2022-07-23T00:58:44;25.60;60.60
1107;DHT22;540;49.448;8.612;2022-07-23T01:01:13;25.40;62.00
1107;DHT22;540;49.448;8.612;2022-07-23T01:03:40;25.20;63.50
1107;DHT22;540;49.448;8.612;2022-07-23T01:06:09;25.10;64.20
1107;DHT22;540;49.448;8.612;2022-07-23T01:08:37;25.20;64.30
1107;DHT22;540;49.448;8.612;2022-07-23T01:11:05;25.30;64.10
1107;DHT22;540;49.448;8.612;2022-07-23T01:13:34;25.20;63.70
1107;DHT22;540;49.448;8.612;2022-07-23T01:16:02;25.20;63.80
1107;DHT22;540;49.448;8.612;2022-07-23T01:18:30;25.30;63.90
1107;DHT22;540;49.448;8.612;2022-07-23T01:20:58;25.30;63.80
1107;DHT22;540;49.448;8.612;2022-07-23T01:23:27;25.30;63.80
1107;DHT22;540;49.448;8.612;2022-07-23T01:25:55;25.30;63.80
1107;DHT22;540;49.448;8.612;2022-07-23T01:28:23;25.40;63.70
1107;DHT22;540;49.448;8.612;2022-07-23T01:30:51;25.40;63.50
1107;DHT22;540;49.448;8.612;2022-07-23T01:33:19;25.30;63.90
1107;DHT22;540;49.448;8.612;2022-07-23T01:35:47;25.20;64.10
1107;DHT22;540;49.448;8.612;2022-07-23T01:38:15;25.10;65.00
1107;DHT22;540;49.448;8.612;2022-07-23T01:40:44;24.80;66.00
1107;DHT22;540;49.448;8.612;2022-07-23T01:43:19;24.70;66.80
1107;DHT22;540;49.448;8.612;2022-07-23T01:45:51;24.70;67.10
1107;DHT22;540;49.448;8.612;2022-07-23T01:48:18;24.70;67.50
1107;DHT22;540;49.448;8.612;2022-07-23T01:50:47;24.70;67.80
1107;DHT22;540;49.448;8.612;2022-07-23T01:53:15;24.60;68.40
1107;DHT22;540;49.448;8.612;2022-07-23T01:55:45;24.40;69.30
1107;DHT22;540;49.448;8.612;2022-07-23T01:58:13;24.40;70.40
1107;DHT22;540;49.448;8.612;2022-07-23T02:00:40;24.40;71.00
1107;DHT22;540;49.448;8.612;2022-07-23T02:03:08;24.40;71.40
1107;DHT22;540;49.448;8.612;2022-07-23T02:05:36;24.40;72.50
1107;DHT22;540;49.448;8.612;2022-07-23T02:08:04;24.20;73.20
1107;DHT22;540;49.448;8.612;2022-07-23T02:10:32;24.10;74.10
1107;DHT22;540;49.448;8.612;2022-07-23T02:13:04;24.20;73.90
1107;DHT22;540;49.448;8.612;2022-07-23T02:15:32;24.20;73.40
1107;DHT22;540;49.448;8.612;2022-07-23T02:17:59;24.20;73.80
1107;DHT22;540;49.448;8.612;2022-07-23T02:20:27;24.00;75.30
1107;DHT22;540;49.448;8.612;2022-07-23T02:22:55;23.80;75.70
1107;DHT22;540;49.448;8.612;2022-07-23T02:25:23;23.70;76.50
1107;DHT22;540;49.448;8.612;2022-07-23T02:27:51;23.70;77.50
1107;DHT22;540;49.448;8.612;2022-07-23T02:30:20;23.70;77.80
1107;DHT22;540;49.448;8.612;2022-07-23T02:32:48;23.80;77.00
1107;DHT22;540;49.448;8.612;2022-07-23T02:35:15;24.00;76.90
1107;DHT22;540;49.448;8.612;2022-07-23T02:37:43;24.00;76.60
1107;DHT22;540;49.448;8.612;2022-07-23T02:40:11;24.00;76.80
1107;DHT22;540;49.448;8.612;2022-07-23T02:42:39;24.10;77.50
1107;DHT22;540;49.448;8.612;2022-07-23T02:45:08;24.10;77.70
1107;DHT22;540;49.448;8.612;2022-07-23T02:47:37;24.00;77.70
1107;DHT22;540;49.448;8.612;2022-07-23T02:50:06;23.80;78.20
1107;DHT22;540;49.448;8.612;2022-07-23T02:52:34;23.70;79.50
1107;DHT22;540;49.448;8.612;2022-07-23T02:55:02;23.60;79.80
1107;DHT22;540;49.448;8.612;2022-07-23T02:57:30;23.60;80.90
1107;DHT22;540;49.448;8.612;2022-07-23T02:59:58;23.60;80.90
1107;DHT22;540;49.448;8.612;2022-07-23T03:02:25;23.50;80.50
1107;DHT22;540;49.448;8.612;2022-07-23T03:04:55;23.70;80.20
1107;DHT22;540;49.448;8.612;2022-07-23T03:07:23;23.80;79.10
1107;DHT22;540;49.448;8.612;2022-07-23T03:09:50;23.90;78.20
1107;DHT22;540;49.448;8.612;2022-07-23T03:12:18;24.00;77.60
1107;DHT22;540;49.448;8.612;2022-07-23T03:14:46;24.00;76.60
1107;DHT22;540;49.448;8.612;2022-07-23T03:17:14;24.00;76.50
1107;DHT22;540;49.448;8.612;2022-07-23T03:19:42;24.20;77.20
1107;DHT22;540;49.448;8.612;2022-07-23T03:22:11;24.00;76.60
1107;DHT22;540;49.448;8.612;2022-07-23T03:24:39;24.00;76.70
1107;DHT22;540;49.448;8.612;2022-07-23T03:27:25;23.90;77.00
1107;DHT22;540;49.448;8.612;2022-07-23T03:29:56;24.20;77.70
1107;DHT22;540;49.448;8.612;2022-07-23T03:32:24;23.90;76.90
1107;DHT22;540;49.448;8.612;2022-07-23T03:34:52;23.90;77.50
1107;DHT22;540;49.448;8.612;2022-07-23T03:37:22;23.90;77.30
1107;DHT22;540;49.448;8.612;2022-07-23T03:39:50;24.00;77.20
1107;DHT22;540;49.448;8.612;2022-07-23T03:42:18;24.00;77.00
1107;DHT22;540;49.448;8.612;2022-07-23T03:44:46;24.00;76.80
1107;DHT22;540;49.448;8.612;2022-07-23T03:47:13;24.00;76.90
1107;DHT22;540;49.448;8.612;2022-07-23T03:49:43;24.00;78.10
1107;DHT22;540;49.448;8.612;2022-07-23T03:52:11;24.10;77.90
1107;DHT22;540;49.448;8.612;2022-07-23T03:54:40;23.60;79.40
1107;DHT22;540;49.448;8.612;2022-07-23T03:57:08;23.60;80.30
1107;DHT22;540;49.448;8.612;2022-07-23T03:59:35;23.50;81.60
1107;DHT22;540;49.448;8.612;2022-07-23T04:02:03;23.40;82.10
1107;DHT22;540;49.448;8.612;2022-07-23T04:04:31;23.30;84.60
1107;DHT22;540;49.448;8.612;2022-07-23T04:06:59;23.30;85.00
1107;DHT22;540;49.448;8.612;2022-07-23T04:09:27;23.40;88.50
1107;DHT22;540;49.448;8.612;2022-07-23T04:11:56;23.40;90.50
1107;DHT22;540;49.448;8.612;2022-07-23T04:14:24;23.60;90.60
1107;DHT22;540;49.448;8.612;2022-07-23T04:16:52;23.70;90.00
1107;DHT22;540;49.448;8.612;2022-07-23T04:19:20;23.70;89.70
1107;DHT22;540;49.448;8.612;2022-07-23T04:21:48;23.70;88.90
1107;DHT22;540;49.448;8.612;2022-07-23T04:24:15;23.70;88.90
1107;DHT22;540;49.448;8.612;2022-07-23T04:26:43;23.60;90.00
1107;DHT22;540;49.448;8.612;2022-07-23T04:29:12;23.60;90.80
1107;DHT22;540;49.448;8.612;2022-07-23T04:31:40;23.60;91.00
1107;DHT22;540;49.448;8.612;2022-07-23T04:34:08;23.80;90.60
1107;DHT22;540;49.448;8.612;2022-07-23T04:36:36;23.70;90.20
1107;DHT22;540;49.448;8.612;2022-07-23T04:39:04;23.70;89.40
1107;DHT22;540;49.448;8.612;2022-07-23T04:41:33;23.70;88.10
1107;DHT22;540;49.448;8.612;2022-07-23T04:44:01;23.70;88.50
1107;DHT22;540;49.448;8.612;2022-07-23T04:46:30;23.60;87.60
1107;DHT22;540;49.448;8.612;2022-07-23T04:49:00;23.50;89.90
1107;DHT22;540;49.448;8.612;2022-07-23T04:51:28;23.40;90.60
1107;DHT22;540;49.448;8.612;2022-07-23T04:53:56;23.40;92.20
1107;DHT22;540;49.448;8.612;2022-07-23T04:56:24;23.40;93.90
1107;DHT22;540;49.448;8.612;2022-07-23T04:58:52;23.40;93.40
1107;DHT22;540;49.448;8.612;2022-07-23T05:01:20;23.30;94.00
1107;DHT22;540;49.448;8.612;2022-07-23T05:03:49;23.50;94.60
1107;DHT22;540;49.448;8.612;2022-07-23T05:06:17;23.50;94.10
1107;DHT22;540;49.448;8.612;2022-07-23T05:08:45;23.50;93.70
1107;DHT22;540;49.448;8.612;2022-07-23T05:11:12;23.70;94.50
1107;DHT22;540;49.448;8.612;2022-07-23T05:13:40;23.70;94.90
1107;DHT22;540;49.448;8.612;2022-07-23T05:16:08;23.60;95.70
1107;DHT22;540;49.448;8.612;2022-07-23T05:18:36;23.40;97.30
1107;DHT22;540;49.448;8.612;2022-07-23T05:21:05;23.40;99.20
1107;DHT22;540;49.448;8.612;2022-07-23T05:23:33;23.10;99.90
1107;DHT22;540;49.448;8.612;2022-07-23T05:26:01;23.00;99.90
1107;DHT22;540;49.448;8.612;2022-07-23T05:28:29;23.00;99.90
1107;DHT22;540;49.448;8.612;2022-07-23T05:30:57;23.00;99.90
1107;DHT22;540;49.448;8.612;2022-07-23T05:33:25;23.00;99.90
1107;DHT22;540;49.448;8.612;2022-07-23T05:35:52;23.10;99.90
1107;DHT22;540;49.448;8.612;2022-07-23T05:38:21;22.80;99.90
1107;DHT22;540;49.448;8.612;2022-07-23T05:40:49;22.70;99.90
1107;DHT22;540;49.448;8.612;2022-07-23T05:43:17;22.60;99.90
1107;DHT22;540;49.448;8.612;2022-07-23T05:45:45;22.40;99.90
1107;DHT22;540;49.448;8.612;2022-07-23T05:48:13;22.40;99.90
1107;DHT22;540;49.448;8.612;2022-07-23T05:50:41;22.30;99.90
1107;DHT22;540;49.448;8.612;2022-07-23T05:53:09;22.40;99.90
1107;DHT22;540;49.448;8.612;2022-07-23T05:55:38;22.50;99.90
1107;DHT22;540;49.448;8.612;2022-07-23T05:58:06;22.50;99.90
1107;DHT22;540;49.448;8.612;2022-07-23T06:00:35;22.40;99.90
1107;DHT22;540;49.448;8.612;2022-07-23T06:03:03;22.50;99.90
1107;DHT22;540;49.448;8.612;2022-07-23T06:05:31;22.40;99.90
1107;DHT22;540;49.448;8.612;2022-07-23T06:07:58;22.40;99.90
1107;DHT22;540;49.448;8.612;2022-07-23T06:10:26;22.60;99.90
1107;DHT22;540;49.448;8.612;2022-07-23T06:12:55;22.60;99.90
1107;DHT22;540;49.448;8.612;2022-07-23T06:15:28;22.80;99.90
1107;DHT22;540;49.448;8.612;2022-07-23T06:17:57;22.80;99.90
1107;DHT22;540;49.448;8.612;2022-07-23T06:20:24;23.00;99.90
1107;DHT22;540;49.448;8.612;2022-07-23T06:22:52;23.10;99.90
1107;DHT22;540;49.448;8.612;2022-07-23T06:25:20;23.00;99.90
1107;DHT22;540;49.448;8.612;2022-07-23T06:27:48;23.20;99.90
1107;DHT22;540;49.448;8.612;2022-07-23T06:30:17;23.30;99.90
1107;DHT22;540;49.448;8.612;2022-07-23T06:32:47;23.40;99.90
1107;DHT22;540;49.448;8.612;2022-07-23T06:35:15;23.40;99.90
1107;DHT22;540;49.448;8.612;2022-07-23T06:37:44;23.30;99.90
1107;DHT22;540;49.448;8.612;2022-07-23T06:40:14;23.30;99.90
1107;DHT22;540;49.448;8.612;2022-07-23T06:42:42;23.30;99.90
1107;DHT22;540;49.448;8.612;2022-07-23T06:45:10;23.40;99.90
1107;DHT22;540;49.448;8.612;2022-07-23T06:47:39;23.40;99.90
1107;DHT22;540;49.448;8.612;2022-07-23T06:50:08;23.30;99.90
1107;DHT22;540;49.448;8.612;2022-07-23T06:52:37;23.20;99.90
1107;DHT22;540;49.448;8.612;2022-07-23T06:55:09;23.10;99.90
1107;DHT22;540;49.448;8.612;2022-07-23T06:57:37;23.00;99.90
1107;DHT22;540;49.448;8.612;2022-07-23T07:00:06;22.90;99.90
1107;DHT22;540;49.448;8.612;2022-07-23T07:02:34;22.90;99.90
1107;DHT22;540;49.448;8.612;2022-07-23T07:05:04;22.90;99.90
1107;DHT22;540;49.448;8.612;2022-07-23T07:07:32;22.80;99.90
1107;DHT22;540;49.448;8.612;2022-07-23T07:10:00;23.00;99.90
1107;DHT22;540;49.448;8.612;2022-07-23T07:12:28;23.10;99.90
1107;DHT22;540;49.448;8.612;2022-07-23T07:14:56;23.30;99.90
1107;DHT22;540;49.448;8.612;2022-07-23T07:17:24;23.40;99.90
1107;DHT22;540;49.448;8.612;2022-07-23T07:19:52;23.40;99.90
1107;DHT22;540;49.448;8.612;2022-07-23T07:22:21;23.30;99.90
1107;DHT22;540;49.448;8.612;2022-07-23T07:24:49;23.30;99.90
1107;DHT22;540;49.448;8.612;2022-07-23T07:27:17;23.40;99.90
1107;DHT22;540;49.448;8.612;2022-07-23T07:29:45;23.60;99.90
1107;DHT22;540;49.448;8.612;2022-07-23T07:32:13;23.80;99.90
1107;DHT22;540;49.448;8.612;2022-07-23T07:35:00;24.40;99.90
1107;DHT22;540;49.448;8.612;2022-07-23T07:37:30;24.80;97.20
1107;DHT22;540;49.448;8.612;2022-07-23T07:39:58;25.30;95.20
1107;DHT22;540;49.448;8.612;2022-07-23T07:42:26;25.90;92.00
1107;DHT22;540;49.448;8.612;2022-07-23T07:44:53;26.90;86.90
1107;DHT22;540;49.448;8.612;2022-07-23T07:47:21;27.90;77.30
1107;DHT22;540;49.448;8.612;2022-07-23T07:49:49;28.40;71.70
1107;DHT22;540;49.448;8.612;2022-07-23T07:52:18;28.40;70.90
1107;DHT22;540;49.448;8.612;2022-07-23T07:54:47;28.40;72.10
1107;DHT22;540;49.448;8.612;2022-07-23T07:57:15;28.30;71.40
1107;DHT22;540;49.448;8.612;2022-07-23T07:59:43;28.50;70.00
1107;DHT22;540;49.448;8.612;2022-07-23T08:02:11;28.60;68.00
1107;DHT22;540;49.448;8.612;2022-07-23T08:04:39;28.60;67.10
1107;DHT22;540;49.448;8.612;2022-07-23T08:07:07;28.50;67.40
1107;DHT22;540;49.448;8.612;2022-07-23T08:09:35;28.30;67.00
1107;DHT22;540;49.448;8.612;2022-07-23T08:12:04;28.00;68.80
1107;DHT22;540;49.448;8.612;2022-07-23T08:14:32;27.70;69.50
1107;DHT22;540;49.448;8.612;2022-07-23T08:17:00;27.40;70.80
1107;DHT22;540;49.448;8.612;2022-07-23T08:19:40;27.20;71.50
1107;DHT22;540;49.448;8.612;2022-07-23T08:22:08;26.90;71.50
1107;DHT22;540;49.448;8.612;2022-07-23T08:24:36;27.00;73.00
1107;DHT22;540;49.448;8.612;2022-07-23T08:27:05;26.90;72.30
1107;DHT22;540;49.448;8.612;2022-07-23T08:29:33;26.80;72.30
1107;DHT22;540;49.448;8.612;2022-07-23T08:32:01;26.80;72.90
1107;DHT22;540;49.448;8.612;2022-07-23T08:34:49;27.40;71.10
1107;DHT22;540;49.448;8.612;2022-07-23T08:37:17;28.10;67.20
1107;DHT22;540;49.448;8.612;2022-07-23T08:39:44;28.50;65.00
1107;DHT22;540;49.448;8.612;2022-07-23T08:42:14;28.80;63.20
1107;DHT22;540;49.448;8.612;2022-07-23T08:44:45;29.50;60.50
1107;DHT22;540;49.448;8.612;2022-07-23T08:47:13;29.60;59.20
1107;DHT22;540;49.448;8.612;2022-07-23T08:49:42;29.50;60.00
1107;DHT22;540;49.448;8.612;2022-07-23T08:52:11;30.10;58.70
1107;DHT22;540;49.448;8.612;2022-07-23T08:54:39;31.00;56.00
1107;DHT22;540;49.448;8.612;2022-07-23T08:57:07;32.00;53.20
1107;DHT22;540;49.448;8.612;2022-07-23T08:59:37;32.70;50.80
1107;DHT22;540;49.448;8.612;2022-07-23T09:02:05;33.30;48.60
1107;DHT22;540;49.448;8.612;2022-07-23T09:04:33;33.70;47.80
1107;DHT22;540;49.448;8.612;2022-07-23T09:07:02;33.70;47.10
1107;DHT22;540;49.448;8.612;2022-07-23T09:09:30;33.50;47.40
1107;DHT22;540;49.448;8.612;2022-07-23T09:12:04;33.80;46.80
1107;DHT22;540;49.448;8.612;2022-07-23T09:14:38;34.60;45.20
1107;DHT22;540;49.448;8.612;2022-07-23T09:17:15;35.40;43.30
1107;DHT22;540;49.448;8.612;2022-07-23T09:19:45;35.70;42.10
1107;DHT22;540;49.448;8.612;2022-07-23T09:22:18;35.20;40.70
1107;DHT22;540;49.448;8.612;2022-07-23T09:25:07;35.50;40.00
1107;DHT22;540;49.448;8.612;2022-07-23T09:27:50;35.80;39.20
1107;DHT22;540;49.448;8.612;2022-07-23T09:30:24;35.30;40.20
1107;DHT22;540;49.448;8.612;2022-07-23T09:33:10;35.50;40.10
1107;DHT22;540;49.448;8.612;2022-07-23T09:35:50;36.00;39.00
1107;DHT22;540;49.448;8.612;2022-07-23T09:38:19;36.30;38.10
1107;DHT22;540;49.448;8.612;2022-07-23T09:41:05;35.60;38.80
1107;DHT22;540;49.448;8.612;2022-07-23T09:43:34;36.30;37.90
1107;DHT22;540;49.448;8.612;2022-07-23T09:46:21;36.40;37.30
1107;DHT22;540;49.448;8.612;2022-07-23T09:48:51;36.50;37.10
1107;DHT22;540;49.448;8.612;2022-07-23T09:51:20;37.00;35.70
1107;DHT22;540;49.448;8.612;2022-07-23T09:53:52;37.30;35.50
1107;DHT22;540;49.448;8.612;2022-07-23T09:56:21;37.00;35.40
1107;DHT22;540;49.448;8.612;2022-07-23T09:58:54;37.10;35.30
1107;DHT22;540;49.448;8.612;2022-07-23T10:01:31;37.30;34.50
1107;DHT22;540;49.448;8.612;2022-07-23T10:03:59;37.10;34.80
1107;DHT22;540;49.448;8.612;2022-07-23T10:06:29;37.40;34.30
1107;DHT22;540;49.448;8.612;2022-07-23T10:08:58;37.20;35.00
1107;DHT22;540;49.448;8.612;2022-07-23T10:11:27;37.30;34.90
1107;DHT22;540;49.448;8.612;2022-07-23T10:13:56;37.40;35.00
1107;DHT22;540;49.448;8.612;2022-07-23T10:16:27;36.70;35.60
1107;DHT22;540;49.448;8.612;2022-07-23T10:18:56;36.80;35.50
1107;DHT22;540;49.448;8.612;2022-07-23T10:21:30;37.20;34.80
1107;DHT22;540;49.448;8.612;2022-07-23T10:24:12;37.10;34.40
1107;DHT22;540;49.448;8.612;2022-07-23T10:26:54;37.30;34.50
1107;DHT22;540;49.448;8.612;2022-07-23T10:29:35;37.40;34.50
1107;DHT22;540;49.448;8.612;2022-07-23T10:32:17;37.90;33.20
1107;DHT22;540;49.448;8.612;2022-07-23T10:34:55;38.00;32.60
1107;DHT22;540;49.448;8.612;2022-07-23T10:37:34;37.60;34.20
1107;DHT22;540;49.448;8.612;2022-07-23T10:40:11;37.70;33.30
1107;DHT22;540;49.448;8.612;2022-07-23T10:42:40;38.20;32.10
1107;DHT22;540;49.448;8.612;2022-07-23T10:45:29;38.30;32.00
1107;DHT22;540;49.448;8.612;2022-07-23T10:48:12;37.80;33.10
1107;DHT22;540;49.448;8.612;2022-07-23T10:50:43;37.00;34.10
1107;DHT22;540;49.448;8.612;2022-07-23T10:53:15;37.20;33.90
1107;DHT22;540;49.448;8.612;2022-07-23T10:55:51;37.20;34.40
1107;DHT22;540;49.448;8.612;2022-07-23T10:58:22;36.70;34.90
1107;DHT22;540;49.448;8.612;2022-07-23T11:00:50;36.60;35.20
1107;DHT22;540;49.448;8.612;2022-07-23T11:03:32;35.90;35.80
1107;DHT22;540;49.448;8.612;2022-07-23T11:06:05;35.40;37.00
1107;DHT22;540;49.448;8.612;2022-07-23T11:08:33;36.20;36.70
1107;DHT22;540;49.448;8.612;2022-07-23T11:11:09;36.20;36.10
1107;DHT22;540;49.448;8.612;2022-07-23T11:13:39;36.70;35.50
1107;DHT22;540;49.448;8.612;2022-07-23T11:16:12;36.80;34.70
1107;DHT22;540;49.448;8.612;2022-07-23T11:18:59;36.20;35.90
1107;DHT22;540;49.448;8.612;2022-07-23T11:21:51;36.00;36.20
1107;DHT22;540;49.448;8.612;2022-07-23T11:24:21;36.20;35.10
1107;DHT22;540;49.448;8.612;2022-07-23T11:26:52;36.30;34.50
1107;DHT22;540;49.448;8.612;2022-07-23T11:29:40;36.00;35.10
1107;DHT22;540;49.448;8.612;2022-07-23T11:32:35;35.70;36.40
1107;DHT22;540;49.448;8.612;2022-07-23T11:35:23;35.80;35.90
1107;DHT22;540;49.448;8.612;2022-07-23T11:37:54;36.00;35.70
1107;DHT22;540;49.448;8.612;2022-07-23T11:40:29;35.80;35.40
1107;DHT22;540;49.448;8.612;2022-07-23T11:42:59;35.50;36.00
1107;DHT22;540;49.448;8.612;2022-07-23T11:45:32;35.40;36.50
1107;DHT22;540;49.448;8.612;2022-07-23T11:48:01;35.40;36.20
1107;DHT22;540;49.448;8.612;2022-07-23T11:50:30;35.10;36.70
1107;DHT22;540;49.448;8.612;2022-07-23T11:52:59;34.60;37.80
1107;DHT22;540;49.448;8.612;2022-07-23T11:55:27;34.60;37.70
1107;DHT22;540;49.448;8.612;2022-07-23T11:57:56;34.60;38.00
1107;DHT22;540;49.448;8.612;2022-07-23T12:00:28;34.70;37.90
1107;DHT22;540;49.448;8.612;2022-07-23T12:02:58;34.60;38.00
1107;DHT22;540;49.448;8.612;2022-07-23T12:05:29;34.60;37.50
1107;DHT22;540;49.448;8.612;2022-07-23T12:08:00;34.90;37.20
1107;DHT22;540;49.448;8.612;2022-07-23T12:10:29;34.80;36.50
1107;DHT22;540;49.448;8.612;2022-07-23T12:12:59;34.60;37.10
1107;DHT22;540;49.448;8.612;2022-07-23T12:15:30;34.90;36.70
1107;DHT22;540;49.448;8.612;2022-07-23T12:18:13;34.70;36.40
1107;DHT22;540;49.448;8.612;2022-07-23T12:20:49;34.60;36.60
1107;DHT22;540;49.448;8.612;2022-07-23T12:23:21;33.90;37.50
1107;DHT22;540;49.448;8.612;2022-07-23T12:25:51;33.30;38.60
1107;DHT22;540;49.448;8.612;2022-07-23T12:28:27;33.00;39.10
1107;DHT22;540;49.448;8.612;2022-07-23T12:30:59;32.90;40.20
1107;DHT22;540;49.448;8.612;2022-07-23T12:33:32;32.60;40.00
1107;DHT22;540;49.448;8.612;2022-07-23T12:36:03;32.90;40.00
1107;DHT22;540;49.448;8.612;2022-07-23T12:38:39;33.20;39.30
1107;DHT22;540;49.448;8.612;2022-07-23T12:41:08;33.50;39.40
1107;DHT22;540;49.448;8.612;2022-07-23T12:43:39;33.50;39.60
1107;DHT22;540;49.448;8.612;2022-07-23T12:46:11;33.10;39.90
1107;DHT22;540;49.448;8.612;2022-07-23T12:48:52;32.70;40.80
1107;DHT22;540;49.448;8.612;2022-07-23T12:51:23;32.40;41.90
1107;DHT22;540;49.448;8.612;2022-07-23T12:54:08;32.20;46.20
1107;DHT22;540;49.448;8.612;2022-07-23T12:56:45;31.80;51.10
1107;DHT22;540;49.448;8.612;2022-07-23T12:59:32;31.50;51.20
1107;DHT22;540;49.448;8.612;2022-07-23T13:02:00;30.60;55.80
1107;DHT22;540;49.448;8.612;2022-07-23T13:04:29;30.10;57.70
1107;DHT22;540;49.448;8.612;2022-07-23T13:06:59;29.70;59.60
1107;DHT22;540;49.448;8.612;2022-07-23T13:09:33;29.50;57.50
1107;DHT22;540;49.448;8.612;2022-07-23T13:12:08;29.70;58.50
1107;DHT22;540;49.448;8.612;2022-07-23T13:14:37;30.00;56.70
1107;DHT22;540;49.448;8.612;2022-07-23T13:17:05;30.10;54.60
1107;DHT22;540;49.448;8.612;2022-07-23T13:19:33;30.30;55.30
1107;DHT22;540;49.448;8.612;2022-07-23T13:22:01;30.40;54.80
1107;DHT22;540;49.448;8.612;2022-07-23T13:24:37;30.40;53.70
1107;DHT22;540;49.448;8.612;2022-07-23T13:27:06;30.10;53.30
1107;DHT22;540;49.448;8.612;2022-07-23T13:29:37;30.00;54.70
1107;DHT22;540;49.448;8.612;2022-07-23T13:32:05;30.10;55.10
1107;DHT22;540;49.448;8.612;2022-07-23T13:34:53;30.10;56.30
1107;DHT22;540;49.448;8.612;2022-07-23T13:37:20;30.40;54.10
1107;DHT22;540;49.448;8.612;2022-07-23T13:39:52;30.60;52.90
1107;DHT22;540;49.448;8.612;2022-07-23T13:42:20;30.70;51.50
1107;DHT22;540;49.448;8.612;2022-07-23T13:44:49;30.60;51.60
1107;DHT22;540;49.448;8.612;2022-07-23T13:47:17;30.80;52.40
1107;DHT22;540;49.448;8.612;2022-07-23T13:49:45;31.00;51.20
1107;DHT22;540;49.448;8.612;2022-07-23T13:52:14;31.10;49.40
1107;DHT22;540;49.448;8.612;2022-07-23T13:54:42;31.40;47.90
1107;DHT22;540;49.448;8.612;2022-07-23T13:57:12;31.20;48.00
1107;DHT22;540;49.448;8.612;2022-07-23T13:59:40;30.70;48.20
1107;DHT22;540;49.448;8.612;2022-07-23T14:02:09;30.40;49.20
1107;DHT22;540;49.448;8.612;2022-07-23T14:04:53;30.50;50.20
1107;DHT22;540;49.448;8.612;2022-07-23T14:07:21;30.80;49.90
1107;DHT22;540;49.448;8.612;2022-07-23T14:09:49;31.10;50.10
1107;DHT22;540;49.448;8.612;2022-07-23T14:12:19;31.40;49.40
1107;DHT22;540;49.448;8.612;2022-07-23T14:14:49;31.60;48.90
1107;DHT22;540;49.448;8.612;2022-07-23T14:17:17;32.10;47.70
1107;DHT22;540;49.448;8.612;2022-07-23T14:19:45;32.40;47.50
1107;DHT22;540;49.448;8.612;2022-07-23T14:22:14;32.70;46.90
1107;DHT22;540;49.448;8.612;2022-07-23T14:24:42;32.90;45.70
1107;DHT22;540;49.448;8.612;2022-07-23T14:27:10;33.00;44.10
1107;DHT22;540;49.448;8.612;2022-07-23T14:29:39;33.10;43.20
1107;DHT22;540;49.448;8.612;2022-07-23T14:32:07;33.10;42.40
1107;DHT22;540;49.448;8.612;2022-07-23T14:34:35;32.90;43.00
1107;DHT22;540;49.448;8.612;2022-07-23T14:37:04;32.90;43.80
1107;DHT22;540;49.448;8.612;2022-07-23T14:39:32;33.00;43.40
1107;DHT22;540;49.448;8.612;2022-07-23T14:41:59;33.20;43.90
1107;DHT22;540;49.448;8.612;2022-07-23T14:44:27;33.00;43.20
1107;DHT22;540;49.448;8.612;2022-07-23T14:46:57;32.70;43.90
1107;DHT22;540;49.448;8.612;2022-07-23T14:49:26;32.70;45.00
1107;DHT22;540;49.448;8.612;2022-07-23T14:51:54;32.80;45.20
1107;DHT22;540;49.448;8.612;2022-07-23T14:54:22;32.70;42.20
1107;DHT22;540;49.448;8.612;2022-07-23T14:56:53;32.70;41.70
1107;DHT22;540;49.448;8.612;2022-07-23T14:59:21;32.80;41.80
1107;DHT22;540;49.448;8.612;2022-07-23T15:01:50;32.70;41.80
1107;DHT22;540;49.448;8.612;2022-07-23T15:04:20;32.70;41.00
1107;DHT22;540;49.448;8.612;2022-07-23T15:07:04;32.70;40.80
1107;DHT22;540;49.448;8.612;2022-07-23T15:09:32;32.60;41.50
1107;DHT22;540;49.448;8.612;2022-07-23T15:12:02;32.30;41.70
1107;DHT22;540;49.448;8.612;2022-07-23T15:14:31;32.00;41.80
1107;DHT22;540;49.448;8.612;2022-07-23T15:17:01;31.60;42.20
1107;DHT22;540;49.448;8.612;2022-07-23T15:19:30;31.20;43.00
1107;DHT22;540;49.448;8.612;2022-07-23T15:21:59;31.10;43.40
1107;DHT22;540;49.448;8.612;2022-07-23T15:24:28;31.10;43.80
1107;DHT22;540;49.448;8.612;2022-07-23T15:26:56;31.10;44.30
1107;DHT22;540;49.448;8.612;2022-07-23T15:29:24;31.30;43.50
1107;DHT22;540;49.448;8.612;2022-07-23T15:31:52;31.30;43.80
1107;DHT22;540;49.448;8.612;2022-07-23T15:34:24;31.40;43.50
1107;DHT22;540;49.448;8.612;2022-07-23T15:36:54;31.20;44.40
1107;DHT22;540;49.448;8.612;2022-07-23T15:39:22;31.30;44.40
1107;DHT22;540;49.448;8.612;2022-07-23T15:41:50;31.20;44.00
1107;DHT22;540;49.448;8.612;2022-07-23T15:44:17;31.20;43.90
1107;DHT22;540;49.448;8.612;2022-07-23T15:46:55;31.20;43.60
1107;DHT22;540;49.448;8.612;2022-07-23T15:49:25;31.30;43.70
1107;DHT22;540;49.448;8.612;2022-07-23T15:51:54;31.30;44.00
1107;DHT22;540;49.448;8.612;2022-07-23T15:54:23;31.20;43.50
1107;DHT22;540;49.448;8.612;2022-07-23T15:56:52;31.30;43.30
1107;DHT22;540;49.448;8.612;2022-07-23T15:59:21;31.30;43.70
1107;DHT22;540;49.448;8.612;2022-07-23T16:01:55;31.20;44.70
1107;DHT22;540;49.448;8.612;2022-07-23T16:04:23;31.10;44.20
1107;DHT22;540;49.448;8.612;2022-07-23T16:06:51;30.80;44.20
1107;DHT22;540;49.448;8.612;2022-07-23T16:09:20;30.60;44.90
1107;DHT22;540;49.448;8.612;2022-07-23T16:11:49;30.30;45.30
1107;DHT22;540;49.448;8.612;2022-07-23T16:14:17;30.10;45.70
1107;DHT22;540;49.448;8.612;2022-07-23T16:16:45;30.00;45.50
1107;DHT22;540;49.448;8.612;2022-07-23T16:19:12;29.90;46.20
1107;DHT22;540;49.448;8.612;2022-07-23T16:21:40;30.00;46.40
1107;DHT22;540;49.448;8.612;2022-07-23T16:24:08;30.10;46.10
1107;DHT22;540;49.448;8.612;2022-07-23T16:26:38;29.90;45.80
1107;DHT22;540;49.448;8.612;2022-07-23T16:29:06;29.90;46.00
1107;DHT22;540;49.448;8.612;2022-07-23T16:31:46;29.90;46.30
1107;DHT22;540;49.448;8.612;2022-07-23T16:34:14;29.80;45.90
1107;DHT22;540;49.448;8.612;2022-07-23T16:36:42;29.70;46.30